Time;durP1;ratioP1;P1;durP2;ratioP2;P2;SDS_P1;SDS_P2;PMS_P1;PMS_P2;Temp;Humidity;BMP_temperature;BMP_pressure;BME280_temperature;BME280_humidity;BME280_pressure;Samples;Min_cycle;Max_cycle;Signal;HPM_P1;HPM_P2
2023/10/02 00:00:41;;;;;;;26.38;14.57;;;17.60;99.90;;;;;;5002734;28;20431;-82
2023/10/02 00:03:09;;;;;;;25.58;14.05;;;17.50;99.90;;;;;;5005439;28;20415;-84
2023/10/02 00:05:50;;;;;;;26.92;14.50;;;17.40;99.90;;;;;;4999785;28;20429;-83
2023/10/02 00:11:36;;;;;;;24.17;13.35;;;17.30;99.90;;;;;;4989675;28;20410;-84
2023/10/02 00:14:25;;;;;;;26.88;14.20;;;17.30;99.90;;;;;;4994280;28;20406;-84
2023/10/02 00:16:58;;;;;;;25.75;14.70;;;17.30;99.90;;;;;;5010279;28;20451;-83
2023/10/02 00:19:57;;;;;;;26.50;14.52;;;17.50;99.90;;;;;;4983250;28;20422;-84
2023/10/02 00:22:43;;;;;;;26.20;14.25;;;17.40;99.90;;;;;;4979727;28;20413;-83
2023/10/02 00:25:16;;;;;;;25.55;14.25;;;17.40;99.90;;;;;;5002461;28;20413;-83
2023/10/02 00:27:48;;;;;;;24.38;14.30;;;17.60;99.90;;;;;;4995703;28;20451;-83
2023/10/02 00:30:15;;;;;;;26.05;14.63;;;17.40;99.90;;;;;;4976496;28;20421;-84
2023/10/02 00:32:45;;;;;;;23.55;14.25;;;17.50;99.90;;;;;;4992549;28;20434;-84
2023/10/02 00:35:11;;;;;;;25.73;13.98;;;17.40;99.90;;;;;;4998277;28;20517;-84
2023/10/02 00:37:44;;;;;;;23.30;13.95;;;17.60;99.90;;;;;;5006792;28;20491;-83
2023/10/02 00:40:21;;;;;;;25.23;13.68;;;17.40;99.90;;;;;;5014868;28;20409;-84
2023/10/02 00:43:33;;;;;;;28.23;14.05;;;17.40;99.90;;;;;;5009289;28;20421;-84
2023/10/02 00:45:49;;;;;;;23.38;14.10;;;17.50;99.90;;;;;;5008796;28;20437;-84
2023/10/02 00:48:25;;;;;;;26.52;15.15;;;17.30;99.90;;;;;;4993083;28;20906;-83
2023/10/02 00:50:54;;;;;;;27.75;14.65;;;17.40;99.90;;;;;;4988431;28;20430;-84
2023/10/02 00:53:37;;;;;;;25.15;14.55;;;17.50;99.90;;;;;;5000427;28;20401;-83
2023/10/02 00:56:27;;;;;;;27.80;15.45;;;17.40;99.90;;;;;;5008193;28;20409;-83
2023/10/02 00:58:57;;;;;;;25.23;15.00;;;17.30;99.90;;;;;;4991361;28;20413;-84
2023/10/02 01:01:23;;;;;;;25.42;15.07;;;17.30;99.90;;;;;;4990398;28;20417;-84
2023/10/02 01:04:13;;;;;;;25.27;15.10;;;17.20;99.90;;;;;;4972132;28;20417;-84
2023/10/02 01:09:26;;;;;;;26.10;15.27;;;17.30;99.90;;;;;;4993854;28;20419;-83
2023/10/02 01:11:59;;;;;;;25.23;15.43;;;17.00;99.90;;;;;;4972204;28;20443;-83
2023/10/02 01:15:11;;;;;;;27.23;15.57;;;17.30;99.90;;;;;;4975149;28;20478;-85
2023/10/02 01:17:16;;;;;;;24.25;14.68;;;17.30;99.90;;;;;;4983325;28;20433;-84
2023/10/02 01:19:57;;;;;;;27.50;15.75;;;17.20;99.90;;;;;;4997081;28;20447;-84
2023/10/02 01:22:36;;;;;;;25.70;14.65;;;17.20;99.90;;;;;;4992902;28;20818;-84
2023/10/02 01:25:15;;;;;;;24.97;15.53;;;17.10;99.90;;;;;;5000321;28;20546;-84
2023/10/02 01:27:42;;;;;;;26.10;15.65;;;17.10;99.90;;;;;;5004060;28;20496;-84
2023/10/02 01:30:17;;;;;;;26.00;15.20;;;17.20;99.90;;;;;;4993910;28;20415;-83
2023/10/02 01:33:15;;;;;;;29.42;15.95;;;17.30;99.90;;;;;;4984712;28;20413;-84
2023/10/02 01:35:55;;;;;;;27.70;16.00;;;17.30;99.90;;;;;;5005534;28;20408;-84
2023/10/02 01:38:29;;;;;;;26.08;15.20;;;17.10;99.90;;;;;;4989400;28;20439;-83
2023/10/02 01:41:06;;;;;;;25.43;15.47;;;17.20;99.90;;;;;;4980351;28;20418;-84
2023/10/02 01:43:44;;;;;;;27.33;15.77;;;17.30;99.90;;;;;;5002533;28;20444;-84
2023/10/02 01:46:17;;;;;;;29.13;15.65;;;17.30;99.90;;;;;;4997826;28;20581;-84
2023/10/02 01:48:44;;;;;;;25.40;15.77;;;17.20;99.90;;;;;;4999479;28;20760;-83
2023/10/02 01:53:54;;;;;;;25.42;15.60;;;17.40;99.90;;;;;;5007671;28;20448;-84
2023/10/02 01:56:22;;;;;;;28.08;15.93;;;17.20;99.90;;;;;;4978604;28;20414;-83
2023/10/02 01:58:49;;;;;;;28.25;16.10;;;17.30;99.90;;;;;;4994784;28;20402;-84
2023/10/02 02:01:16;;;;;;;29.90;16.20;;;17.30;99.90;;;;;;5054732;28;20415;-83
2023/10/02 02:03:48;;;;;;;28.10;16.02;;;17.30;99.90;;;;;;4997352;28;20416;-84
2023/10/02 02:06:22;;;;;;;29.67;17.23;;;17.30;99.90;;;;;;4998029;28;20789;-83
2023/10/02 02:08:52;;;;;;;28.75;16.60;;;17.20;99.90;;;;;;4983360;28;20924;-84
2023/10/02 02:11:23;;;;;;;29.00;16.75;;;17.20;99.90;;;;;;5014478;28;20926;-84
2023/10/02 02:13:54;;;;;;;27.67;16.15;;;17.10;99.90;;;;;;4999554;28;20411;-83
2023/10/02 02:16:33;;;;;;;31.73;17.25;;;17.40;99.90;;;;;;4997855;28;20427;-84
2023/10/02 02:19:05;;;;;;;29.10;17.08;;;17.10;99.90;;;;;;5014100;28;20454;-83
2023/10/02 02:21:32;;;;;;;27.95;17.25;;;17.10;99.90;;;;;;5014056;28;20916;-84
2023/10/02 02:24:07;;;;;;;30.65;17.30;;;17.30;99.90;;;;;;4989476;28;20411;-84
2023/10/02 02:26:37;;;;;;;33.70;18.33;;;17.10;99.90;;;;;;4998012;28;20427;-84
2023/10/02 02:29:04;;;;;;;29.17;16.95;;;16.80;99.90;;;;;;4996365;28;20406;-84
2023/10/02 02:31:31;;;;;;;27.25;16.75;;;17.20;99.90;;;;;;4978511;28;20402;-84
2023/10/02 02:34:04;;;;;;;29.35;16.90;;;16.80;99.90;;;;;;5001363;28;20413;-83
2023/10/02 02:36:35;;;;;;;30.42;17.20;;;16.90;99.90;;;;;;4988594;28;20414;-84
2023/10/02 02:39:15;;;;;;;28.02;17.48;;;16.80;99.90;;;;;;4990055;28;20453;-84
2023/10/02 02:41:47;;;;;;;31.60;17.20;;;17.00;99.90;;;;;;4991246;28;20448;-83
2023/10/02 02:44:36;;;;;;;29.05;17.60;;;17.10;99.90;;;;;;4981250;28;20415;-84
2023/10/02 02:47:07;;;;;;;27.30;16.67;;;17.10;99.90;;;;;;5010180;28;20441;-84
2023/10/02 02:49:48;;;;;;;29.95;17.40;;;17.10;99.90;;;;;;4975731;28;20406;-84
2023/10/02 02:52:16;;;;;;;31.83;17.87;;;17.10;99.90;;;;;;4974729;28;20890;-84
2023/10/02 02:54:44;;;;;;;27.27;16.80;;;17.10;99.90;;;;;;4975313;28;20494;-84
2023/10/02 02:57:12;;;;;;;29.55;16.90;;;16.90;99.90;;;;;;4994569;28;20415;-83
2023/10/02 02:59:38;;;;;;;30.05;17.27;;;17.20;99.90;;;;;;4978024;28;20768;-84
2023/10/02 03:02:15;;;;;;;32.28;17.73;;;17.10;99.90;;;;;;5001665;28;20414;-84
2023/10/02 03:04:42;;;;;;;30.08;17.30;;;17.10;99.90;;;;;;4991141;28;20494;-85
2023/10/02 03:07:29;;;;;;;30.52;17.30;;;17.00;99.90;;;;;;4987244;28;20428;-84
2023/10/02 03:09:56;;;;;;;30.23;17.23;;;17.00;99.90;;;;;;4987776;28;20409;-84
2023/10/02 03:12:24;;;;;;;26.35;16.58;;;17.00;99.90;;;;;;4991277;28;20411;-82
2023/10/02 03:14:54;;;;;;;29.48;17.08;;;17.00;99.90;;;;;;4995481;28;20476;-83
2023/10/02 03:17:28;;;;;;;30.45;17.00;;;17.00;99.90;;;;;;4956092;28;20430;-83
2023/10/02 03:19:55;;;;;;;29.70;16.92;;;17.00;99.90;;;;;;4996801;28;20850;-83
2023/10/02 03:22:24;;;;;;;29.63;17.13;;;17.20;99.90;;;;;;5009731;28;20413;-84
2023/10/02 03:24:51;;;;;;;30.80;16.88;;;17.00;99.90;;;;;;4996057;28;20409;-84
2023/10/02 03:27:17;;;;;;;31.45;17.23;;;17.00;99.90;;;;;;4960372;28;20441;-84
2023/10/02 03:29:43;;;;;;;31.02;17.05;;;17.10;99.90;;;;;;4984020;28;20409;-84
2023/10/02 03:32:12;;;;;;;28.80;17.30;;;17.00;99.90;;;;;;4983308;28;20442;-82
2023/10/02 03:34:40;;;;;;;29.00;17.58;;;16.90;99.90;;;;;;4974671;28;20446;-83
2023/10/02 03:40:00;;;;;;;28.53;16.87;;;16.80;99.90;;;;;;5003842;28;20417;-83
2023/10/02 03:42:30;;;;;;;26.98;16.88;;;17.00;99.90;;;;;;5004325;28;20433;-84
2023/10/02 03:45:04;;;;;;;26.90;16.95;;;16.70;99.90;;;;;;4996394;28;20414;-84
2023/10/02 03:47:30;;;;;;;29.77;17.13;;;17.00;99.90;;;;;;4974064;28;20438;-84
2023/10/02 03:50:00;;;;;;;28.17;16.63;;;17.00;99.90;;;;;;4990094;28;20755;-84
2023/10/02 03:52:31;;;;;;;31.52;17.75;;;16.80;99.90;;;;;;4987394;28;20410;-84
2023/10/02 03:54:57;;;;;;;33.50;17.60;;;16.70;99.90;;;;;;4973356;28;20501;-84
2023/10/02 04:00:13;;;;;;;31.48;17.70;;;16.90;99.90;;;;;;4986502;28;20901;-84
2023/10/02 04:02:43;;;;;;;29.40;17.63;;;16.70;99.90;;;;;;4986557;28;20935;-85
2023/10/02 04:05:10;;;;;;;34.55;17.85;;;16.60;99.90;;;;;;4990715;28;20425;-84
2023/10/02 04:07:35;;;;;;;30.77;16.92;;;16.80;99.90;;;;;;4995437;28;20406;-85
2023/10/02 04:10:06;;;;;;;30.52;17.05;;;16.80;99.90;;;;;;4973558;28;20410;-85
2023/10/02 04:12:50;;;;;;;32.47;17.35;;;16.80;99.90;;;;;;5001113;28;20468;-84
2023/10/02 04:15:16;;;;;;;32.58;18.90;;;16.40;99.90;;;;;;4975943;28;20417;-85
2023/10/02 04:17:49;;;;;;;31.48;18.17;;;16.40;99.90;;;;;;4977836;28;20427;-84
2023/10/02 04:20:27;;;;;;;31.90;18.48;;;16.60;99.90;;;;;;4977857;28;20413;-84
2023/10/02 04:23:18;;;;;;;33.27;18.33;;;16.50;99.90;;;;;;4994473;28;20418;-84
2023/10/02 04:25:44;;;;;;;31.55;18.58;;;16.30;99.90;;;;;;5002185;28;20433;-84
2023/10/02 04:28:09;;;;;;;29.95;17.80;;;16.60;99.90;;;;;;4993794;28;20410;-84
2023/10/02 04:30:38;;;;;;;29.83;18.27;;;16.40;99.90;;;;;;4964363;28;20915;-84
2023/10/02 04:33:08;;;;;;;28.95;17.33;;;16.50;99.90;;;;;;4992553;28;20411;-84
2023/10/02 04:35:47;;;;;;;31.70;17.55;;;16.50;99.90;;;;;;4990560;28;20464;-84
2023/10/02 04:38:47;;;;;;;29.83;17.58;;;16.60;99.90;;;;;;4993767;28;20494;-85
2023/10/02 04:41:05;;;;;;;31.88;18.52;;;16.60;99.90;;;;;;4994511;28;20438;-85
2023/10/02 04:43:34;;;;;;;33.17;18.65;;;16.50;99.90;;;;;;4975897;28;20417;-85
2023/10/02 04:46:08;;;;;;;34.33;18.33;;;16.30;99.90;;;;;;4999971;28;20448;-85
2023/10/02 04:48:42;;;;;;;32.23;17.97;;;16.40;99.90;;;;;;4991738;28;20425;-85
2023/10/02 04:51:12;;;;;;;32.25;18.08;;;16.60;99.90;;;;;;4989245;28;20495;-85
2023/10/02 04:53:42;;;;;;;29.58;18.30;;;16.50;99.90;;;;;;4988428;28;20426;-85
2023/10/02 04:58:49;;;;;;;33.80;19.38;;;16.40;99.90;;;;;;4988914;28;20417;-85
2023/10/02 05:01:29;;;;;;;31.77;18.08;;;16.60;99.90;;;;;;4998119;28;20417;-85
2023/10/02 05:04:04;;;;;;;32.37;19.30;;;15.80;99.90;;;;;;4990221;28;20488;-85
2023/10/02 05:06:43;;;;;;;36.17;19.13;;;16.20;99.90;;;;;;5002586;28;20475;-85
2023/10/02 05:14:29;;;;;;;32.93;18.37;;;16.60;99.90;;;;;;4988893;28;20406;-85
2023/10/02 05:20:04;;;;;;;32.22;19.52;;;16.10;99.90;;;;;;4985245;28;20908;-83
2023/10/02 05:22:32;;;;;;;34.03;18.77;;;16.50;99.90;;;;;;4974681;28;20475;-83
2023/10/02 05:24:59;;;;;;;33.35;18.75;;;16.50;99.90;;;;;;4995823;28;20415;-83
2023/10/02 05:27:31;;;;;;;36.08;19.77;;;16.00;99.90;;;;;;4998028;28;20834;-84
2023/10/02 05:30:12;;;;;;;31.80;19.00;;;16.10;99.90;;;;;;4989060;28;20484;-84
2023/10/02 05:32:38;;;;;;;32.90;18.63;;;16.30;99.90;;;;;;4996290;28;20426;-82
2023/10/02 05:37:42;;;;;;;33.92;19.65;;;16.20;99.90;;;;;;4989151;28;20501;-83
2023/10/02 05:42:50;;;;;;;33.97;20.03;;;16.20;99.90;;;;;;4986444;28;20506;-84
2023/10/02 05:45:17;;;;;;;33.70;19.45;;;16.20;99.90;;;;;;4976020;28;20427;-83
2023/10/02 05:47:48;;;;;;;34.95;19.95;;;16.10;99.90;;;;;;4959864;28;20421;-82
2023/10/02 05:50:15;;;;;;;33.72;19.95;;;16.20;99.90;;;;;;4987443;28;20411;-82
2023/10/02 05:52:48;;;;;;;35.67;20.13;;;16.00;99.90;;;;;;4974019;28;20444;-82
2023/10/02 05:55:17;;;;;;;34.13;19.40;;;16.00;99.90;;;;;;4988700;28;20430;-83
2023/10/02 05:57:43;;;;;;;34.60;18.93;;;16.00;99.90;;;;;;4975408;28;20412;-82
2023/10/02 06:00:17;;;;;;;31.35;18.52;;;16.00;99.90;;;;;;4997812;28;20423;-81
2023/10/02 06:02:57;;;;;;;34.23;19.47;;;16.20;99.90;;;;;;4983950;28;20432;-81
2023/10/02 06:05:23;;;;;;;33.67;19.23;;;16.10;99.90;;;;;;4982359;28;20409;-82
2023/10/02 06:07:51;;;;;;;30.90;18.55;;;16.30;99.90;;;;;;4988690;28;20965;-81
2023/10/02 06:10:26;;;;;;;35.33;18.95;;;16.50;99.90;;;;;;4996356;28;20417;-82
2023/10/02 06:13:03;;;;;;;30.63;18.23;;;16.50;99.90;;;;;;4988911;28;20414;-81
2023/10/02 06:15:48;;;;;;;34.35;18.75;;;16.40;99.90;;;;;;5002486;28;20434;-82
2023/10/02 06:18:29;;;;;;;30.88;18.27;;;16.60;99.90;;;;;;4995087;28;20411;-82
2023/10/02 06:21:03;;;;;;;32.65;18.33;;;16.40;99.90;;;;;;5006033;28;20413;-83
2023/10/02 06:23:37;;;;;;;30.00;17.42;;;16.40;99.90;;;;;;5001452;28;20419;-81
2023/10/02 06:26:09;;;;;;;31.43;18.33;;;16.40;99.90;;;;;;4989737;28;20422;-81
2023/10/02 06:28:36;;;;;;;31.15;17.95;;;16.50;99.90;;;;;;4998376;28;20411;-82
2023/10/02 06:31:06;;;;;;;34.85;18.20;;;16.40;99.90;;;;;;4992501;28;20938;-82
2023/10/02 06:33:38;;;;;;;32.40;18.17;;;16.60;99.90;;;;;;5001452;28;20462;-87
2023/10/02 06:36:08;;;;;;;31.55;18.05;;;16.70;99.90;;;;;;4976939;28;20450;-85
2023/10/02 06:38:34;;;;;;;30.98;18.65;;;16.40;99.90;;;;;;4980677;28;20981;-85
2023/10/02 06:41:07;;;;;;;30.50;18.05;;;16.50;99.90;;;;;;4999075;28;20423;-85
2023/10/02 06:43:33;;;;;;;31.77;18.10;;;16.40;99.90;;;;;;4974778;28;20427;-85
2023/10/02 06:46:07;;;;;;;32.15;17.88;;;16.30;99.90;;;;;;4976997;28;20594;-83
2023/10/02 06:48:43;;;;;;;30.13;17.33;;;16.60;99.90;;;;;;4998697;28;21001;-79
2023/10/02 06:51:10;;;;;;;30.98;18.40;;;16.70;99.90;;;;;;5004525;28;20413;-81
2023/10/02 06:53:40;;;;;;;33.13;18.05;;;16.50;99.90;;;;;;4977726;28;20436;-79
2023/10/02 06:56:10;;;;;;;29.45;17.52;;;16.70;99.90;;;;;;4969604;28;20423;-80
2023/10/02 06:58:49;;;;;;;29.75;18.38;;;16.70;99.90;;;;;;4990259;28;20432;-80
2023/10/02 07:01:19;;;;;;;31.23;17.95;;;16.40;99.90;;;;;;4991663;28;20440;-80
2023/10/02 07:03:51;;;;;;;31.83;18.83;;;16.80;99.90;;;;;;4997512;28;20436;-80
2023/10/02 07:06:24;;;;;;;31.20;17.77;;;16.80;99.90;;;;;;5008626;28;20429;-79
2023/10/02 07:11:36;;;;;;;32.50;18.02;;;16.80;99.90;;;;;;5010706;28;20425;-79
2023/10/02 07:14:04;;;;;;;31.90;17.85;;;18.70;99.90;;;;;;4999536;28;20502;-79
2023/10/02 07:16:32;;;;;;;32.58;18.35;;;17.00;99.90;;;;;;4992943;28;20427;-79
2023/10/02 07:18:59;;;;;;;28.85;17.50;;;16.90;99.90;;;;;;5001120;28;20425;-78
2023/10/02 07:21:30;;;;;;;32.97;18.33;;;16.90;99.90;;;;;;5016929;28;20427;-79
2023/10/02 07:23:58;;;;;;;29.77;17.48;;;17.10;99.90;;;;;;5020592;28;20501;-81
2023/10/02 07:29:09;;;;;;;27.13;16.65;;;17.20;99.90;;;;;;4991138;28;20410;-79
2023/10/02 07:31:35;;;;;;;29.70;17.42;;;17.30;99.90;;;;;;4980398;28;20445;-79
2023/10/02 07:34:02;;;;;;;29.02;17.25;;;17.30;99.90;;;;;;4992918;28;20486;-80
2023/10/02 07:36:32;;;;;;;28.97;17.13;;;17.70;99.90;;;;;;5005413;28;20974;-79
2023/10/02 07:39:00;;;;;;;29.20;16.85;;;17.80;99.90;;;;;;4994400;28;21001;-80
2023/10/02 07:41:28;;;;;;;28.27;16.38;;;18.00;99.90;;;;;;4979581;28;20443;-80
2023/10/02 07:44:07;;;;;;;26.67;16.10;;;18.20;99.90;;;;;;4972717;28;20492;-80
2023/10/02 07:46:33;;;;;;;26.88;17.02;;;18.00;99.90;;;;;;4996160;28;20471;-81
2023/10/02 07:49:04;;;;;;;31.20;17.98;;;18.00;99.90;;;;;;4993535;28;20764;-80
2023/10/02 07:51:40;;;;;;;28.52;17.00;;;18.10;99.90;;;;;;4993359;28;20412;-80
2023/10/02 07:54:07;;;;;;;30.48;17.25;;;18.40;99.90;;;;;;5004152;28;20474;-79
2023/10/02 07:56:33;;;;;;;28.60;17.38;;;18.30;99.90;;;;;;4990912;28;20413;-79
2023/10/02 07:59:02;;;;;;;31.20;17.87;;;18.20;99.90;;;;;;4991574;28;20430;-79
2023/10/02 08:01:29;;;;;;;28.88;17.00;;;18.40;99.90;;;;;;5001176;28;20454;-80
2023/10/02 08:03:56;;;;;;;29.45;17.08;;;18.60;99.90;;;;;;4993094;28;20419;-80
2023/10/02 08:06:33;;;;;;;28.95;16.70;;;18.60;99.90;;;;;;4987787;28;20499;-80
2023/10/02 08:11:50;;;;;;;29.63;17.60;;;18.80;99.90;;;;;;4994706;28;20509;-80
2023/10/02 08:14:35;;;;;;;30.60;18.13;;;19.00;99.90;;;;;;5008437;28;20574;-80
2023/10/02 08:19:56;;;;;;;29.90;17.77;;;19.10;99.90;;;;;;5011165;28;20421;-79
2023/10/02 08:22:35;;;;;;;29.65;17.58;;;19.20;99.90;;;;;;4992744;28;20419;-78
2023/10/02 08:25:13;;;;;;;32.63;17.85;;;19.20;99.90;;;;;;5018047;28;20448;-79
2023/10/02 08:27:55;;;;;;;31.65;17.52;;;19.30;99.90;;;;;;5022366;28;20428;-78
2023/10/02 08:33:06;;;;;;;32.73;19.20;;;19.50;99.90;;;;;;5010613;28;20408;-78
2023/10/02 08:35:37;;;;;;;29.13;17.93;;;19.40;99.90;;;;;;4993075;28;20433;-79
2023/10/02 08:38:07;;;;;;;31.50;18.60;;;19.50;99.90;;;;;;5015647;28;20404;-78
2023/10/02 08:40:33;;;;;;;30.80;17.75;;;19.60;99.90;;;;;;5007637;28;20556;-78
2023/10/02 08:42:59;;;;;;;31.13;18.90;;;19.80;99.90;;;;;;5004182;28;20421;-77
2023/10/02 08:45:26;;;;;;;33.20;19.45;;;19.70;99.90;;;;;;5003071;28;21061;-78
2023/10/02 08:47:52;;;;;;;28.45;17.88;;;19.70;99.90;;;;;;5011539;28;20952;-80
2023/10/02 08:50:18;;;;;;;32.30;19.13;;;19.80;99.90;;;;;;5004441;28;20408;-78
2023/10/02 08:52:50;;;;;;;32.35;18.98;;;19.90;99.90;;;;;;4989007;28;20426;-80
2023/10/02 08:55:51;;;;;;;31.58;19.20;;;19.80;99.90;;;;;;4993176;28;20510;-79
2023/10/02 08:58:21;;;;;;;34.60;19.93;;;19.90;99.90;;;;;;4980721;28;20462;-79
2023/10/02 09:03:42;;;;;;;35.93;20.50;;;19.70;99.90;;;;;;4991911;28;20448;-79
2023/10/02 09:06:35;;;;;;;34.92;20.55;;;20.00;99.90;;;;;;4999474;28;20434;-80
2023/10/02 09:11:41;;;;;;;36.88;21.27;;;19.90;99.90;;;;;;4989046;28;20422;-80
2023/10/02 09:14:21;;;;;;;37.22;21.98;;;20.00;99.90;;;;;;4996676;28;20560;-80
2023/10/02 09:17:12;;;;;;;36.50;21.83;;;20.20;99.90;;;;;;4994656;28;20420;-79
2023/10/02 09:19:39;;;;;;;38.70;21.48;;;20.20;99.90;;;;;;5002057;28;20415;-80
2023/10/02 09:22:12;;;;;;;38.83;22.63;;;20.30;99.90;;;;;;4996708;28;20446;-80
2023/10/02 09:24:40;;;;;;;37.33;22.73;;;20.50;99.90;;;;;;4995063;28;20433;-80
2023/10/02 09:30:36;;;;;;;37.20;22.42;;;21.00;99.90;;;;;;4962642;28;20454;-79
2023/10/02 09:33:16;;;;;;;40.88;23.92;;;21.20;99.90;;;;;;4978138;28;20914;-80
2023/10/02 09:35:42;;;;;;;39.13;23.83;;;21.10;99.90;;;;;;5001546;28;20515;-79
2023/10/02 09:38:17;;;;;;;42.53;23.67;;;20.90;99.90;;;;;;4998977;28;20977;-79
2023/10/02 09:43:33;;;;;;;48.33;25.93;;;20.50;99.90;;;;;;5001622;28;20480;-80
2023/10/02 09:46:06;;;;;;;44.13;24.42;;;20.40;99.90;;;;;;4994989;28;20433;-79
2023/10/02 09:48:53;;;;;;;42.45;23.88;;;20.50;99.90;;;;;;4992400;28;21202;-80
2023/10/02 09:51:29;;;;;;;40.70;23.90;;;20.60;99.90;;;;;;5000697;28;20899;-80
2023/10/02 09:54:04;;;;;;;41.50;23.00;;;20.70;99.90;;;;;;4998992;28;20410;-80
2023/10/02 09:57:04;;;;;;;41.35;23.55;;;20.60;99.90;;;;;;5003389;28;20430;-79
2023/10/02 09:59:46;;;;;;;38.45;22.42;;;20.60;99.90;;;;;;4993023;28;20910;-79
2023/10/02 10:02:49;;;;;;;37.30;21.65;;;20.80;99.90;;;;;;4986482;28;20427;-80
2023/10/02 10:13:32;;;;;;;37.00;20.73;;;20.70;99.90;;;;;;5021413;28;20483;-80
2023/10/02 10:16:18;;;;;;;36.40;21.38;;;20.90;99.90;;;;;;5016545;28;20514;-78
2023/10/02 10:21:57;;;;;;;38.13;20.77;;;21.20;99.90;;;;;;4993962;28;20514;-79
2023/10/02 10:24:36;;;;;;;43.17;21.88;;;21.10;99.90;;;;;;4993816;28;20479;-80
2023/10/02 10:27:03;;;;;;;35.80;21.15;;;21.20;99.90;;;;;;4988823;28;20445;-78
2023/10/02 10:29:41;;;;;;;42.17;22.17;;;21.20;99.90;;;;;;5018500;28;20394;-78
2023/10/02 10:32:24;;;;;;;36.10;20.60;;;20.80;99.90;;;;;;5002269;28;20495;-79
2023/10/02 10:35:17;;;;;;;35.95;20.98;;;21.30;99.90;;;;;;5006329;28;20560;-80
2023/10/02 10:37:47;;;;;;;38.22;22.85;;;21.30;99.90;;;;;;4989706;28;20439;-78
2023/10/02 10:40:44;;;;;;;35.50;21.88;;;21.40;99.90;;;;;;4992496;28;20427;-79
2023/10/02 10:43:20;;;;;;;38.00;22.35;;;21.30;99.90;;;;;;4996635;28;20428;-79
2023/10/02 10:45:48;;;;;;;37.20;21.52;;;21.30;99.90;;;;;;4994997;28;20439;-79
2023/10/02 10:48:24;;;;;;;32.30;20.47;;;21.40;99.90;;;;;;5006520;28;20431;-77
2023/10/02 10:51:01;;;;;;;36.28;22.05;;;21.30;99.90;;;;;;4975293;28;20491;-77
2023/10/02 10:53:29;;;;;;;37.63;21.83;;;21.50;99.90;;;;;;4996167;28;20431;-78
2023/10/02 10:56:16;;;;;;;36.88;23.98;;;21.20;99.90;;;;;;4994411;28;21029;-78
2023/10/02 10:58:47;;;;;;;39.15;24.23;;;21.40;99.90;;;;;;5000432;28;20410;-78
2023/10/02 11:01:16;;;;;;;37.60;23.52;;;21.40;99.90;;;;;;4979056;28;20413;-79
2023/10/02 11:03:54;;;;;;;39.72;24.17;;;21.40;99.90;;;;;;4988205;28;20428;-78
2023/10/02 11:06:24;;;;;;;38.00;24.45;;;21.80;99.90;;;;;;4978155;28;20440;-79
2023/10/02 11:09:12;;;;;;;37.73;24.03;;;21.80;99.90;;;;;;5010941;28;20815;-79
2023/10/02 11:11:50;;;;;;;35.58;23.15;;;21.70;99.90;;;;;;4997571;28;20503;-79
2023/10/02 11:14:22;;;;;;;36.58;24.05;;;21.80;99.90;;;;;;4995359;28;20438;-78
2023/10/02 11:16:52;;;;;;;44.90;25.13;;;22.10;99.90;;;;;;5001960;28;20427;-78
2023/10/02 11:19:25;;;;;;;50.72;25.42;;;21.90;99.90;;;;;;4981716;28;20412;-79
2023/10/02 11:22:15;;;;;;;41.45;24.10;;;22.00;99.90;;;;;;4982243;28;20444;-78
2023/10/02 11:24:42;;;;;;;35.08;22.35;;;21.90;99.90;;;;;;4982813;28;20501;-78
2023/10/02 11:27:12;;;;;;;36.53;22.52;;;21.90;99.90;;;;;;4984654;28;20437;-79
2023/10/02 11:29:41;;;;;;;40.50;23.60;;;22.00;99.90;;;;;;4977590;28;20409;-78
2023/10/02 11:32:19;;;;;;;35.88;22.75;;;21.70;99.90;;;;;;5001009;28;20425;-78
2023/10/02 11:34:46;;;;;;;35.55;22.30;;;21.70;99.90;;;;;;5024319;28;20458;-78
2023/10/02 11:37:13;;;;;;;34.88;22.17;;;21.80;99.90;;;;;;5006377;28;20455;-78
2023/10/02 11:39:39;;;;;;;33.75;21.73;;;21.90;99.90;;;;;;5001124;28;20436;-78
2023/10/02 11:42:07;;;;;;;32.22;21.40;;;22.20;99.90;;;;;;4992453;28;20439;-78
2023/10/02 11:44:33;;;;;;;32.10;21.15;;;22.00;99.90;;;;;;4983728;28;20438;-78
2023/10/02 11:47:01;;;;;;;33.10;21.67;;;22.20;99.90;;;;;;4983195;28;20431;-79
2023/10/02 11:49:29;;;;;;;37.25;22.98;;;22.10;99.90;;;;;;4996144;28;20421;-78
2023/10/02 11:52:03;;;;;;;35.45;23.23;;;21.70;99.90;;;;;;4983862;28;20450;-79
2023/10/02 11:54:36;;;;;;;36.13;23.00;;;21.60;99.90;;;;;;4998627;28;20411;-78
2023/10/02 11:57:10;;;;;;;36.27;22.10;;;21.40;99.90;;;;;;4986062;28;20437;-78
2023/10/02 12:00:08;;;;;;;34.78;22.40;;;21.90;99.90;;;;;;4996904;28;20433;-79
2023/10/02 12:02:29;;;;;;;38.67;22.95;;;21.70;99.90;;;;;;5003047;28;20488;-79
2023/10/02 12:04:55;;;;;;;42.53;25.80;;;21.80;99.90;;;;;;5013224;28;20992;-79
2023/10/02 12:07:22;;;;;;;38.80;24.05;;;21.60;99.90;;;;;;5019730;28;20434;-79
2023/10/02 12:09:48;;;;;;;37.53;25.02;;;21.80;99.90;;;;;;5006942;28;20404;-78
2023/10/02 12:12:14;;;;;;;41.35;24.40;;;21.60;99.90;;;;;;4982045;28;20421;-79
2023/10/02 12:14:39;;;;;;;39.20;24.58;;;21.60;99.90;;;;;;5001997;28;20466;-78
2023/10/02 12:17:06;;;;;;;41.33;24.07;;;21.60;99.90;;;;;;4994791;28;20517;-79
2023/10/02 12:19:36;;;;;;;37.08;23.95;;;21.50;99.90;;;;;;4980530;28;20514;-79
2023/10/02 12:22:07;;;;;;;37.58;24.27;;;21.80;99.90;;;;;;4980505;28;20503;-79
2023/10/02 12:24:36;;;;;;;38.22;23.73;;;21.90;99.90;;;;;;4993079;28;20427;-78
2023/10/02 12:27:10;;;;;;;37.20;23.42;;;21.90;99.90;;;;;;4977996;28;20508;-78
2023/10/02 12:29:36;;;;;;;37.83;24.75;;;22.10;99.90;;;;;;4990543;28;20885;-79
2023/10/02 12:32:03;;;;;;;37.90;23.92;;;22.30;99.90;;;;;;5001629;28;20410;-78
2023/10/02 12:34:29;;;;;;;39.50;23.63;;;22.20;99.90;;;;;;4978264;28;20504;-80
2023/10/02 12:36:55;;;;;;;40.00;24.13;;;22.10;99.90;;;;;;4979576;28;20429;-79
2023/10/02 12:39:22;;;;;;;35.72;22.52;;;22.10;99.90;;;;;;4999367;28;20420;-80
2023/10/02 12:41:48;;;;;;;38.53;23.63;;;21.70;99.90;;;;;;4995722;28;20438;-79
2023/10/02 12:44:16;;;;;;;36.77;22.83;;;22.20;99.90;;;;;;4986863;28;20409;-79
2023/10/02 12:46:50;;;;;;;38.28;22.52;;;22.30;99.90;;;;;;4997789;28;20465;-79
2023/10/02 12:49:19;;;;;;;37.42;23.05;;;22.60;99.90;;;;;;5006329;28;20425;-78
2023/10/02 12:51:45;;;;;;;36.30;22.98;;;22.60;99.90;;;;;;4995639;28;20418;-78
2023/10/02 12:54:11;;;;;;;35.40;23.33;;;22.60;99.90;;;;;;4989935;28;20463;-79
2023/10/02 12:56:39;;;;;;;33.80;20.70;;;22.40;99.90;;;;;;4991076;28;20422;-78
2023/10/02 12:59:09;;;;;;;34.38;21.92;;;22.50;99.90;;;;;;4981107;28;20413;-78
2023/10/02 13:01:35;;;;;;;34.17;21.75;;;22.60;99.90;;;;;;4998473;28;20788;-78
2023/10/02 13:04:01;;;;;;;32.88;20.67;;;22.60;99.90;;;;;;5001867;28;20413;-79
2023/10/02 13:06:29;;;;;;;34.13;21.15;;;22.50;99.90;;;;;;4981965;28;20434;-79
2023/10/02 13:09:02;;;;;;;37.95;23.15;;;22.50;99.90;;;;;;4996054;28;20449;-79
2023/10/02 13:11:28;;;;;;;33.85;21.63;;;22.50;99.90;;;;;;4995704;28;20479;-77
2023/10/02 13:13:55;;;;;;;34.05;21.35;;;22.50;99.90;;;;;;4996807;28;20446;-77
2023/10/02 13:16:24;;;;;;;35.93;21.43;;;22.60;99.90;;;;;;4991070;28;20426;-78
2023/10/02 13:18:55;;;;;;;36.72;22.40;;;22.50;99.90;;;;;;4995035;28;20410;-78
2023/10/02 13:21:21;;;;;;;35.47;21.77;;;22.70;99.90;;;;;;5012362;28;20497;-79
2023/10/02 13:23:48;;;;;;;34.13;22.43;;;22.60;99.90;;;;;;5007717;28;20538;-78
2023/10/02 13:26:16;;;;;;;31.17;19.80;;;22.70;99.90;;;;;;4981138;28;22445;-78
2023/10/02 13:28:48;;;;;;;30.15;19.90;;;22.50;99.90;;;;;;4996524;28;20760;-78
2023/10/02 13:31:17;;;;;;;31.52;21.17;;;22.60;99.90;;;;;;4991526;28;20411;-78
2023/10/02 13:33:52;;;;;;;31.58;21.83;;;22.70;99.90;;;;;;4999299;28;20409;-77
2023/10/02 13:36:27;;;;;;;32.27;20.07;;;22.50;99.90;;;;;;5005598;28;20452;-78
2023/10/02 13:38:56;;;;;;;32.38;20.02;;;22.50;99.90;;;;;;5007477;28;20439;-79
2023/10/02 13:41:25;;;;;;;29.65;19.65;;;22.70;99.90;;;;;;4999050;28;20786;-78
2023/10/02 13:43:54;;;;;;;28.52;19.08;;;22.70;99.90;;;;;;4984163;28;20423;-78
2023/10/02 13:46:23;;;;;;;28.83;19.55;;;22.60;99.90;;;;;;4989343;28;20515;-79
2023/10/02 13:48:52;;;;;;;28.13;19.37;;;22.60;99.90;;;;;;4991706;28;20461;-78
2023/10/02 13:51:18;;;;;;;28.17;18.73;;;22.70;99.90;;;;;;4993122;28;20452;-78
2023/10/02 13:53:45;;;;;;;28.50;19.05;;;22.90;99.90;;;;;;5003477;28;20416;-79
2023/10/02 13:56:25;;;;;;;30.65;20.17;;;22.90;99.90;;;;;;4987368;28;20418;-79
2023/10/02 13:58:51;;;;;;;29.45;20.08;;;23.00;99.90;;;;;;4986505;28;20415;-80
2023/10/02 14:01:20;;;;;;;29.67;19.15;;;22.90;99.90;;;;;;5000698;28;20409;-79